createdAt,value
2022-08-28T00:00:20.788Z,101234.53
2022-08-28T00:02:49.186Z,101233.03
2022-08-28T00:05:20.476Z,101231.50
2022-08-28T00:07:48.395Z,101237.38
2022-08-28T00:10:18.071Z,101238.03
2022-08-28T00:12:46.958Z,101246.38
2022-08-28T00:15:20.927Z,101244.34
2022-08-28T00:17:48.796Z,101244.53
2022-08-28T00:20:18.557Z,101247.53
2022-08-28T00:22:49.699Z,101247.00
2022-08-28T00:25:24.121Z,101242.13
2022-08-28T00:27:55.229Z,101252.19
2022-08-28T00:30:25.072Z,101244.28
2022-08-28T00:32:54.412Z,101242.78
2022-08-28T00:35:23.653Z,101240.41
2022-08-28T00:37:54.610Z,101245.13
2022-08-28T00:40:33.075Z,101235.53
2022-08-28T00:43:02.993Z,101233.34
2022-08-28T00:45:38.749Z,101237.00
2022-08-28T00:48:07.483Z,101235.31
2022-08-28T00:50:50.757Z,101236.66
2022-08-28T00:53:20.690Z,101241.34
2022-08-28T00:55:51.501Z,101238.66
2022-08-28T00:58:20.299Z,101247.88
2022-08-28T01:00:47.913Z,101248.06
2022-08-28T01:03:15.529Z,101240.13
2022-08-28T01:05:46.658Z,101244.50
2022-08-28T01:08:14.642Z,101240.13
2022-08-28T01:10:47.603Z,101237.63
2022-08-28T01:13:16.185Z,101236.78
2022-08-28T01:15:44.790Z,101245.13
2022-08-28T01:18:15.529Z,101240.78
2022-08-28T01:20:49.686Z,101247.16
2022-08-28T01:23:26.080Z,101256.22
2022-08-28T01:25:55.280Z,101245.47
2022-08-28T01:28:22.967Z,101249.63
2022-08-28T01:30:50.607Z,101248.97
2022-08-28T01:33:19.335Z,101249.09
2022-08-28T01:35:56.176Z,101257.50
2022-08-28T01:38:27.018Z,101250.75
2022-08-28T01:40:59.110Z,101259.81
2022-08-28T01:43:28.780Z,101263.16
2022-08-28T01:46:01.792Z,101265.47
2022-08-28T01:48:31.671Z,101264.78
2022-08-28T01:51:00.279Z,101264.97
2022-08-28T01:53:32.670Z,101265.25
2022-08-28T01:56:04.522Z,101266.59
2022-08-28T01:58:37.426Z,101268.56
2022-08-28T02:01:09.495Z,101264.53
2022-08-28T02:03:37.269Z,101268.38
2022-08-28T02:06:04.985Z,101265.16
2022-08-28T02:08:56.948Z,101272.69
2022-08-28T02:11:26.111Z,101274.78
2022-08-28T02:13:56.329Z,101274.28
2022-08-28T02:16:24.155Z,101272.59
2022-08-28T02:18:52.062Z,101279.25
2022-08-28T02:21:19.947Z,101282.22
2022-08-28T02:23:48.022Z,101285.22
2022-08-28T02:26:16.197Z,101284.69
2022-08-28T02:28:45.179Z,101284.00
2022-08-28T02:31:13.275Z,101280.66
2022-08-28T02:33:43.474Z,101278.44
2022-08-28T02:36:13.042Z,101276.75
2022-08-28T02:38:40.940Z,101286.75
2022-08-28T02:41:09.155Z,101280.72
2022-08-28T02:43:36.968Z,101276.53
2022-08-28T02:46:06.873Z,101277.66
2022-08-28T02:48:37.626Z,101282.34
2022-08-28T02:51:09.028Z,101278.81
2022-08-28T02:53:37.596Z,101284.19
2022-08-28T02:56:06.215Z,101282.63
2022-08-28T02:58:34.540Z,101286.31
2022-08-28T03:01:04.134Z,101290.81
2022-08-28T03:03:34.202Z,101280.28
2022-08-28T03:06:03.700Z,101287.59
2022-08-28T03:08:32.239Z,101282.25
2022-08-28T03:11:00.928Z,101292.13
2022-08-28T03:13:29.986Z,101292.28
2022-08-28T03:15:58.626Z,101296.63
2022-08-28T03:18:28.328Z,101287.75
2022-08-28T03:20:57.835Z,101289.75
2022-08-28T03:23:28.643Z,101289.22
2022-08-28T03:25:58.552Z,101306.28
2022-08-28T03:28:27.731Z,101297.56
2022-08-28T03:30:55.665Z,101299.41
2022-08-28T03:33:23.284Z,101293.22
2022-08-28T03:35:51.562Z,101299.53
2022-08-28T03:38:21.392Z,101307.72
2022-08-28T03:40:49.325Z,101312.41
2022-08-28T03:43:19.004Z,101308.88
2022-08-28T03:45:56.509Z,101309.00
2022-08-28T03:48:24.535Z,101310.34
2022-08-28T03:50:54.055Z,101309.78
2022-08-28T03:53:26.363Z,101315.28
2022-08-28T03:55:54.359Z,101314.72
2022-08-28T03:58:22.242Z,101313.22
2022-08-28T04:00:51.028Z,101308.84
2022-08-28T04:03:19.226Z,101307.31
2022-08-28T04:05:47.826Z,101310.28
2022-08-28T04:08:17.583Z,101307.91
2022-08-28T04:10:48.291Z,101310.72
2022-08-28T04:13:17.799Z,101310.88
2022-08-28T04:15:46.176Z,101313.84
2022-08-28T04:18:14.133Z,101315.00
2022-08-28T04:20:41.804Z,101319.63
2022-08-28T04:23:14.014Z,101320.78
2022-08-28T04:25:41.910Z,101317.44
2022-08-28T04:28:11.137Z,101323.75
2022-08-28T04:30:41.600Z,101329.41
2022-08-28T04:33:10.434Z,101321.63
2022-08-28T04:35:38.118Z,101330.66
2022-08-28T04:38:06.110Z,101330.13
2022-08-28T04:40:34.028Z,101336.59
2022-08-28T04:43:01.679Z,101335.06
2022-08-28T04:45:30.702Z,101339.88
2022-08-28T04:47:58.665Z,101337.50
2022-08-28T04:50:30.526Z,101338.75
2022-08-28T04:52:58.371Z,101344.28
2022-08-28T04:55:40.080Z,101338.50
2022-08-28T04:58:15.104Z,101348.66
2022-08-28T05:00:47.819Z,101341.91
2022-08-28T05:03:17.464Z,101346.69
2022-08-28T05:05:46.445Z,101344.19
2022-08-28T05:08:15.309Z,101356.72
2022-08-28T05:10:43.376Z,101352.47
2022-08-28T05:13:12.491Z,101348.38
2022-08-28T05:15:40.434Z,101351.94
2022-08-28T05:18:09.690Z,101347.69
2022-08-28T05:20:38.555Z,101346.00
2022-08-28T05:23:07.470Z,101349.53
2022-08-28T05:25:36.376Z,101352.34
2022-08-28T05:28:05.970Z,101352.22
2022-08-28T05:30:39.526Z,101351.22
2022-08-28T05:33:09.568Z,101357.41
2022-08-28T05:35:39.123Z,101360.81
2022-08-28T05:38:07.603Z,101358.81
2022-08-28T05:40:41.978Z,101363.16
2022-08-28T05:43:10.167Z,101359.50
2022-08-28T05:45:37.795Z,101355.88
2022-08-28T05:48:06.304Z,101355.88
2022-08-28T05:50:37.820Z,101358.53
2022-08-28T05:53:05.602Z,101360.06
2022-08-28T05:55:33.167Z,101368.38
2022-08-28T05:58:20.782Z,101367.69
2022-08-28T06:00:48.390Z,101369.38
2022-08-28T06:03:15.944Z,101378.22
2022-08-28T06:05:44.933Z,101370.09
2022-08-28T06:08:13.278Z,101372.63
2022-08-28T06:10:44.795Z,101372.63
2022-08-28T06:13:18.540Z,101374.16
2022-08-28T06:15:48.243Z,101369.50
2022-08-28T06:18:17.317Z,101375.41
2022-08-28T06:20:47.986Z,101377.94
2022-08-28T06:23:23.815Z,101388.09
2022-08-28T06:25:52.674Z,101383.97
2022-08-28T06:28:22.925Z,101392.28
2022-08-28T06:31:15.964Z,101391.41
2022-08-28T06:33:39.846Z,101398.72
2022-08-28T06:36:09.511Z,101396.88
2022-08-28T06:38:37.090Z,101398.97
2022-08-28T06:41:09.937Z,101397.25
2022-08-28T06:43:38.251Z,101395.50
2022-08-28T06:46:06.412Z,101395.59
2022-08-28T06:48:34.838Z,101397.94
2022-08-28T06:51:02.958Z,101392.22
2022-08-28T06:53:31.910Z,101396.22
2022-08-28T06:56:02.136Z,101390.34
2022-08-28T06:58:31.141Z,101398.16
2022-08-28T07:01:07.764Z,101391.75
2022-08-28T07:03:35.906Z,101397.06
2022-08-28T07:06:12.522Z,101390.91
2022-08-28T07:08:42.269Z,101390.00
2022-08-28T07:11:11.341Z,101392.06
2022-08-28T07:13:38.954Z,101398.16
2022-08-28T07:16:07.504Z,101405.81
2022-08-28T07:18:35.386Z,101397.34
2022-08-28T07:21:03.358Z,101402.97
2022-08-28T07:23:32.192Z,101394.97
2022-08-28T07:26:04.325Z,101398.25
2022-08-28T07:28:31.971Z,101402.34
2022-08-28T07:31:03.487Z,101397.00
2022-08-28T07:33:32.608Z,101411.19
2022-08-28T07:36:02.631Z,101398.97
2022-08-28T07:38:30.354Z,101400.50
2022-08-28T07:40:58.031Z,101403.88
2022-08-28T07:43:44.807Z,101406.41
2022-08-28T07:46:12.917Z,101408.56
2022-08-28T07:48:42.128Z,101403.72
2022-08-28T07:51:11.038Z,101408.59
2022-08-28T07:53:38.632Z,101405.25
2022-08-28T07:56:07.233Z,101413.00
2022-08-28T07:58:36.134Z,101401.97
2022-08-28T08:01:03.772Z,101412.88
2022-08-28T08:03:32.294Z,101414.41
2022-08-28T08:06:03.154Z,101405.31
2022-08-28T08:08:31.704Z,101411.53
2022-08-28T08:11:01.424Z,101406.81
2022-08-28T08:13:30.451Z,101412.69
2022-08-28T08:16:04.289Z,101410.16
2022-08-28T08:18:33.368Z,101409.50
2022-08-28T08:21:01.516Z,101408.09
2022-08-28T08:23:29.110Z,101419.72
2022-08-28T08:25:58.988Z,101413.69
2022-08-28T08:28:27.300Z,101420.09
2022-08-28T08:31:05.826Z,101421.59
2022-08-28T08:33:34.265Z,101416.19
2022-08-28T08:36:02.049Z,101418.63
2022-08-28T08:38:30.906Z,101422.41
2022-08-28T08:41:01.708Z,101423.13
2022-08-28T08:43:35.139Z,101429.03
2022-08-28T08:46:04.246Z,101428.00
2022-08-28T08:48:36.224Z,101427.72
2022-08-28T08:51:04.991Z,101425.84
2022-08-28T08:53:38.907Z,101423.16
2022-08-28T08:56:07.410Z,101422.97
2022-08-28T08:58:38.738Z,101420.09
2022-08-28T09:01:15.438Z,101427.50
2022-08-28T09:03:55.877Z,101420.75
2022-08-28T09:06:30.459Z,101421.19
2022-08-28T09:09:01.409Z,101410.47
2022-08-28T09:11:38.202Z,101411.34
2022-08-28T09:14:12.839Z,101415.94
2022-08-28T09:16:46.425Z,101430.22
2022-08-28T09:19:20.611Z,101424.63
2022-08-28T09:21:50.747Z,101427.44
2022-08-28T09:24:23.252Z,101434.22
2022-08-28T09:26:58.486Z,101437.09
2022-08-28T09:29:31.387Z,101430.78
2022-08-28T09:32:18.113Z,101432.53
2022-08-28T09:35:06.996Z,101426.25
2022-08-28T09:37:36.591Z,101424.09
2022-08-28T09:40:17.255Z,101423.50
2022-08-28T09:43:22.166Z,101425.72
2022-08-28T09:45:58.059Z,101428.88
2022-08-28T09:48:33.821Z,101420.41
2022-08-28T09:51:04.768Z,101427.94
2022-08-28T09:53:35.159Z,101441.84
2022-08-28T09:56:18.492Z,101434.22
2022-08-28T09:58:50.956Z,101424.50
2022-08-28T10:01:31.000Z,101414.06
2022-08-28T10:04:12.513Z,101415.81
2022-08-28T10:06:43.568Z,101422.34
2022-08-28T10:09:22.510Z,101415.47
2022-08-28T10:12:00.882Z,101416.03
2022-08-28T10:14:53.716Z,101418.47
2022-08-28T10:17:31.343Z,101417.44
2022-08-28T10:20:08.623Z,101413.06
2022-08-28T10:22:45.498Z,101414.34
2022-08-28T10:25:23.614Z,101410.03
2022-08-28T10:28:09.396Z,101411.16
2022-08-28T10:30:44.200Z,101406.78
2022-08-28T10:33:33.653Z,101405.19
2022-08-28T10:36:08.316Z,101410.75
2022-08-28T10:39:06.296Z,101406.63
2022-08-28T10:41:42.081Z,101421.84
2022-08-28T10:44:12.302Z,101424.56
2022-08-28T10:46:45.899Z,101416.44
2022-08-28T10:49:21.510Z,101411.88
2022-08-28T10:51:52.692Z,101413.16
2022-08-28T10:54:26.595Z,101407.81
2022-08-28T10:56:58.540Z,101404.75
2022-08-28T10:59:30.466Z,101401.84
2022-08-28T11:01:59.284Z,101419.88
2022-08-28T11:04:29.302Z,101415.03
2022-08-28T11:07:02.393Z,101408.72
2022-08-28T11:09:33.652Z,101411.88
2022-08-28T11:12:04.430Z,101408.16
2022-08-28T11:14:35.483Z,101409.34
2022-08-28T11:17:09.582Z,101413.28
2022-08-28T11:20:10.268Z,101417.47
2022-08-28T11:22:44.778Z,101421.41
2022-08-28T11:25:17.310Z,101427.84
2022-08-28T11:28:14.619Z,101422.88
2022-08-28T11:30:45.655Z,101416.19
2022-08-28T11:33:37.715Z,101413.38
2022-08-28T11:36:06.119Z,101412.53
2022-08-28T11:39:05.068Z,101417.09
2022-08-28T11:41:35.141Z,101411.31
2022-08-28T11:44:43.525Z,101415.97
2022-08-28T11:47:37.834Z,101415.59
2022-08-28T11:50:15.404Z,101412.44
2022-08-28T11:53:12.286Z,101416.44
2022-08-28T11:56:31.114Z,101421.03
2022-08-28T11:59:11.254Z,101399.56
2022-08-28T12:01:39.291Z,101414.22
2022-08-28T12:04:08.769Z,101416.84
2022-08-28T12:07:21.943Z,101412.88
2022-08-28T12:09:50.215Z,101415.03
2022-08-28T12:12:54.357Z,101407.75
2022-08-28T12:15:43.220Z,101409.88
2022-08-28T12:18:55.364Z,101413.22
2022-08-28T12:21:25.800Z,101413.63
2022-08-28T12:24:09.087Z,101410.94
2022-08-28T12:26:43.291Z,101412.31
2022-08-28T12:29:27.974Z,101416.34
2022-08-28T12:32:23.384Z,101410.16
2022-08-28T12:35:07.536Z,101400.63
2022-08-28T12:37:51.285Z,101398.34
2022-08-28T12:40:22.886Z,101403.22
2022-08-28T12:42:55.423Z,101403.22
2022-08-28T12:45:28.928Z,101405.34
2022-08-28T12:48:00.977Z,101399.34
2022-08-28T12:50:33.071Z,101396.31
2022-08-28T12:53:04.257Z,101386.34
2022-08-28T12:55:32.667Z,101394.38
2022-08-28T12:58:01.268Z,101391.31
2022-08-28T13:00:34.775Z,101384.69
2022-08-28T13:03:03.981Z,101380.94
2022-08-28T13:05:34.363Z,101378.94
2022-08-28T13:08:06.666Z,101388.19
2022-08-28T13:10:37.456Z,101385.19
2022-08-28T13:13:08.500Z,101382.13
2022-08-28T13:16:03.205Z,101380.09
2022-08-28T13:18:51.203Z,101375.97
2022-08-28T13:21:33.843Z,101374.38
2022-08-28T13:24:27.392Z,101371.03
2022-08-28T13:27:06.738Z,101379.75
2022-08-28T13:29:35.381Z,101375.75
2022-08-28T13:32:06.801Z,101368.88
2022-08-28T13:34:35.998Z,101370.41
2022-08-28T13:37:07.260Z,101371.06
2022-08-28T13:39:45.075Z,101369.44
2022-08-28T13:42:15.342Z,101370.72
2022-08-28T13:44:50.405Z,101359.47
2022-08-28T13:47:19.449Z,101358.72
2022-08-28T13:49:47.247Z,101360.19
2022-08-28T13:52:15.181Z,101354.34
2022-08-28T13:54:45.325Z,101358.78
2022-08-28T13:57:13.581Z,101357.13
2022-08-28T13:59:42.051Z,101352.72
2022-08-28T14:02:30.922Z,101351.88
2022-08-28T14:05:00.327Z,101357.09
2022-08-28T14:07:29.307Z,101351.03
2022-08-28T14:09:57.097Z,101339.53
2022-08-28T14:12:32.646Z,101347.06
2022-08-28T14:15:01.047Z,101352.72
2022-08-28T14:17:28.766Z,101351.06
2022-08-28T14:19:56.455Z,101349.56
2022-08-28T14:22:25.425Z,101341.63
2022-08-28T14:24:53.433Z,101344.78
2022-08-28T14:27:21.274Z,101339.34
2022-08-28T14:29:49.887Z,101334.72
2022-08-28T14:32:17.552Z,101341.63
2022-08-28T14:34:45.188Z,101339.09
2022-08-28T14:37:13.211Z,101332.78
2022-08-28T14:39:42.170Z,101338.63
2022-08-28T14:42:12.968Z,101337.31
2022-08-28T14:44:41.077Z,101335.59
2022-08-28T14:47:08.679Z,101339.13
2022-08-28T14:49:36.393Z,101329.88
2022-08-28T14:52:04.712Z,101340.72
2022-08-28T14:54:32.346Z,101336.31
2022-08-28T14:57:01.366Z,101343.09
2022-08-28T14:59:31.639Z,101343.16
2022-08-28T15:02:00.503Z,101333.41
2022-08-28T15:04:34.354Z,101339.50
2022-08-28T15:07:06.058Z,101345.38
2022-08-28T15:09:35.859Z,101339.13
2022-08-28T15:12:05.884Z,101348.53
2022-08-28T15:14:33.528Z,101349.81
2022-08-28T15:17:01.266Z,101342.06
2022-08-28T15:19:29.979Z,101346.03
2022-08-28T15:21:58.576Z,101336.81
2022-08-28T15:24:30.759Z,101344.94
2022-08-28T15:26:59.453Z,101344.94
2022-08-28T15:29:29.808Z,101347.81
2022-08-28T15:31:58.156Z,101338.41
2022-08-28T15:34:28.163Z,101348.59
2022-08-28T15:36:57.257Z,101342.28
2022-08-28T15:39:42.656Z,101345.56
2022-08-28T15:42:11.363Z,101347.16
2022-08-28T15:44:40.738Z,101344.41
2022-08-28T15:47:08.603Z,101348.28
2022-08-28T15:49:43.640Z,101345.34
2022-08-28T15:52:18.943Z,101340.53
2022-08-28T15:54:46.965Z,101328.19
2022-08-28T15:57:14.589Z,101337.38
2022-08-28T15:59:50.477Z,101337.19
2022-08-28T16:02:20.344Z,101334.03
2022-08-28T16:04:48.483Z,101342.81
2022-08-28T16:07:16.481Z,101344.63
2022-08-28T16:09:44.155Z,101349.78
2022-08-28T16:12:11.788Z,101348.47
2022-08-28T16:14:39.357Z,101345.31
2022-08-28T16:17:10.821Z,101345.31
2022-08-28T16:19:39.583Z,101347.19
2022-08-28T16:22:07.785Z,101343.47
2022-08-28T16:24:35.587Z,101346.34
2022-08-28T16:27:03.280Z,101343.00
2022-08-28T16:29:31.076Z,101344.22
2022-08-28T16:31:59.122Z,101352.47
2022-08-28T16:34:31.356Z,101349.28
2022-08-28T16:36:59.258Z,101345.47
2022-08-28T16:39:27.547Z,101347.28
2022-08-28T16:41:55.256Z,101345.63
2022-08-28T16:44:25.288Z,101351.81
2022-08-28T16:46:53.096Z,101351.75
2022-08-28T16:49:21.323Z,101351.28
2022-08-28T16:51:50.573Z,101356.91
2022-08-28T16:54:18.910Z,101350.03
2022-08-28T16:56:46.858Z,101347.06
2022-08-28T16:59:16.376Z,101352.19
2022-08-28T17:01:44.152Z,101354.84
2022-08-28T17:04:12.543Z,101349.63
2022-08-28T17:06:40.384Z,101343.94
2022-08-28T17:09:09.326Z,101346.78
2022-08-28T17:11:37.154Z,101348.03
2022-08-28T17:14:07.671Z,101352.13
2022-08-28T17:16:35.388Z,101348.16
2022-08-28T17:19:03.064Z,101349.34
2022-08-28T17:21:48.225Z,101344.28
2022-08-28T17:24:17.156Z,101351.09
2022-08-28T17:26:45.023Z,101354.34
2022-08-28T17:29:12.651Z,101358.28
2022-08-28T17:31:40.990Z,101365.94
2022-08-28T17:34:08.977Z,101366.69
2022-08-28T17:36:37.601Z,101365.38
2022-08-28T17:39:07.974Z,101363.41
2022-08-28T17:41:37.118Z,101372.75
2022-08-28T17:44:05.143Z,101371.63
2022-08-28T17:46:37.408Z,101376.41
2022-08-28T17:49:06.023Z,101372.75
2022-08-28T17:51:43.716Z,101377.22
2022-08-28T17:54:13.065Z,101377.28
2022-08-28T17:56:42.367Z,101374.09
2022-08-28T17:59:10.976Z,101374.66
2022-08-28T18:01:39.009Z,101380.16
2022-08-28T18:04:07.079Z,101375.28
2022-08-28T18:06:35.161Z,101386.19
2022-08-28T18:09:02.768Z,101381.31
2022-08-28T18:11:30.543Z,101387.47
2022-08-28T18:14:00.743Z,101393.41
2022-08-28T18:16:31.698Z,101385.19
2022-08-28T18:18:59.766Z,101397.41
2022-08-28T18:21:27.708Z,101394.56
2022-08-28T18:23:55.342Z,101396.31
2022-08-28T18:26:23.371Z,101405.97
2022-08-28T18:28:52.240Z,101402.13
2022-08-28T18:31:21.366Z,101410.06
2022-08-28T18:33:49.089Z,101411.63
2022-08-28T18:36:17.964Z,101419.41
2022-08-28T18:38:46.999Z,101419.28
2022-08-28T18:41:14.659Z,101422.69
2022-08-28T18:43:42.393Z,101418.81
2022-08-28T18:46:10.958Z,101432.38
2022-08-28T18:48:40.026Z,101432.03
2022-08-28T18:51:09.415Z,101429.03
2022-08-28T18:53:37.405Z,101438.50
2022-08-28T18:56:07.085Z,101434.16
2022-08-28T18:58:37.966Z,101439.03
2022-08-28T19:01:08.155Z,101444.97
2022-08-28T19:03:36.698Z,101444.81
2022-08-28T19:06:06.942Z,101446.34
2022-08-28T19:08:36.768Z,101460.63
2022-08-28T19:11:08.865Z,101454.91
2022-08-28T19:13:37.082Z,101461.50
2022-08-28T19:16:05.808Z,101458.66
2022-08-28T19:18:33.583Z,101459.34
2022-08-28T19:21:07.609Z,101458.16
2022-08-28T19:23:35.512Z,101461.19
2022-08-28T19:26:03.483Z,101470.44
2022-08-28T19:28:31.115Z,101466.75
2022-08-28T19:30:58.969Z,101468.44
2022-08-28T19:33:26.691Z,101469.44
2022-08-28T19:35:55.019Z,101471.63
2022-08-28T19:38:24.854Z,101482.06
2022-08-28T19:40:57.067Z,101487.28
2022-08-28T19:43:24.819Z,101491.13
2022-08-28T19:46:10.423Z,101490.13
2022-08-28T19:48:46.586Z,101496.69
2022-08-28T19:51:17.390Z,101496.50
2022-08-28T19:53:56.836Z,101489.75
2022-08-28T19:56:27.131Z,101499.34
2022-08-28T19:58:58.328Z,101497.97
2022-08-28T20:01:29.437Z,101501.81
2022-08-28T20:03:57.939Z,101505.34
2022-08-28T20:06:25.574Z,101499.44
2022-08-28T20:08:54.975Z,101505.28
2022-08-28T20:11:24.977Z,101507.47
2022-08-28T20:13:53.035Z,101513.34
2022-08-28T20:16:21.421Z,101507.78
2022-08-28T20:18:49.788Z,101513.47
2022-08-28T20:21:18.629Z,101514.09
2022-08-28T20:23:55.126Z,101510.03
2022-08-28T20:26:22.744Z,101513.38
2022-08-28T20:28:55.744Z,101513.03
2022-08-28T20:31:23.411Z,101504.75
2022-08-28T20:33:51.911Z,101504.53
2022-08-28T20:36:21.508Z,101512.28
2022-08-28T20:38:49.167Z,101512.03
2022-08-28T20:41:20.398Z,101514.50
2022-08-28T20:43:48.992Z,101515.84
2022-08-28T20:46:17.884Z,101514.78
2022-08-28T20:48:45.546Z,101514.69
2022-08-28T20:51:13.788Z,101520.47
2022-08-28T20:53:41.865Z,101523.69
2022-08-28T20:56:11.041Z,101529.78
2022-08-28T20:58:40.171Z,101527.16
2022-08-28T21:01:08.558Z,101531.47
2022-08-28T21:03:36.389Z,101535.03
2022-08-28T21:06:04.471Z,101536.81
2022-08-28T21:08:32.108Z,101534.06
2022-08-28T21:11:00.234Z,101542.16
2022-08-28T21:13:28.005Z,101537.78
2022-08-28T21:15:57.063Z,101542.50
2022-08-28T21:18:24.796Z,101547.38
2022-08-28T21:20:52.509Z,101543.88
2022-08-28T21:23:20.821Z,101543.03
2022-08-28T21:25:48.967Z,101544.09
2022-08-28T21:28:16.857Z,101542.97
2022-08-28T21:30:44.594Z,101548.34
2022-08-28T21:33:14.282Z,101546.53
2022-08-28T21:35:42.937Z,101544.72
2022-08-28T21:38:10.683Z,101548.09
2022-08-28T21:40:40.654Z,101555.16
2022-08-28T21:43:08.953Z,101554.00
2022-08-28T21:45:36.733Z,101561.19
2022-08-28T21:48:04.856Z,101558.66
2022-08-28T21:50:33.898Z,101561.88
2022-08-28T21:53:01.565Z,101558.06
2022-08-28T21:55:29.140Z,101556.78
2022-08-28T21:57:57.354Z,101548.47
2022-08-28T22:00:25.116Z,101555.09
2022-08-28T22:02:53.321Z,101556.47
2022-08-28T22:05:21.353Z,101562.38
2022-08-28T22:07:50.319Z,101564.63
2022-08-28T22:10:18.065Z,101570.41
2022-08-28T22:12:45.994Z,101561.09
2022-08-28T22:15:13.747Z,101565.25
2022-08-28T22:17:41.504Z,101565.09
2022-08-28T22:20:10.543Z,101570.84
2022-08-28T22:22:55.624Z,101572.22
2022-08-28T22:25:25.030Z,101571.66
2022-08-28T22:27:52.755Z,101569.38
2022-08-28T22:30:20.992Z,101571.47
2022-08-28T22:32:48.716Z,101572.84
2022-08-28T22:35:16.590Z,101565.22
2022-08-28T22:38:11.211Z,101557.59
2022-08-28T22:40:40.411Z,101558.84
2022-08-28T22:43:08.122Z,101567.38
2022-08-28T22:45:36.050Z,101563.25
2022-08-28T22:48:04.241Z,101557.50
2022-08-28T22:50:31.917Z,101555.91
2022-08-28T22:52:59.556Z,101547.59
2022-08-28T22:55:27.538Z,101552.47
2022-08-28T22:57:56.536Z,101555.53
2022-08-28T23:00:26.999Z,101554.34
2022-08-28T23:02:56.467Z,101549.41
2022-08-28T23:05:25.812Z,101556.84
2022-08-28T23:07:53.448Z,101538.53
2022-08-28T23:10:36.701Z,101544.00
2022-08-28T23:13:13.473Z,101548.03
2022-08-28T23:15:43.410Z,101538.59
2022-08-28T23:18:11.716Z,101546.03
2022-08-28T23:20:39.364Z,101548.09
2022-08-28T23:23:07.358Z,101545.66
2022-08-28T23:25:35.845Z,101550.44
2022-08-28T23:28:06.501Z,101550.66
2022-08-28T23:30:35.759Z,101552.75
2022-08-28T23:33:04.167Z,101545.13
2022-08-28T23:35:36.853Z,101540.91
2022-08-28T23:38:05.215Z,101542.13
2022-08-28T23:40:34.010Z,101546.84
2022-08-28T23:43:04.032Z,101540.94
2022-08-28T23:45:32.087Z,101538.66
2022-08-28T23:48:01.129Z,101530.03
2022-08-28T23:50:28.889Z,101534.66
2022-08-28T23:52:56.572Z,101533.22
2022-08-28T23:55:26.980Z,101536.13
2022-08-28T23:57:55.453Z,101534.56
